sensor_id;sensor_type;location;lat;lon;timestamp;P1;durP1;ratioP1;P2;durP2;ratioP2
32451;SDS011;45528;52.102;5.242;2023-07-24T00:01:34;3.6;;;2.31;;
32451;SDS011;45528;52.102;5.242;2023-07-24T00:04:48;3.8;;;2.5;;
32451;SDS011;45528;52.102;5.242;2023-07-24T00:08:03;3.6;;;2.4;;
32451;SDS011;45528;52.102;5.242;2023-07-24T00:09:40;5.11;;;2.1;;
32451;SDS011;45528;52.102;5.242;2023-07-24T00:14:31;3.4;;;2.21;;
32451;SDS011;45528;52.102;5.242;2023-07-24T00:16:08;3.3;;;2.1;;
32451;SDS011;45528;52.102;5.242;2023-07-24T00:17:45;3.0;;;2.21;;
32451;SDS011;45528;52.102;5.242;2023-07-24T00:21:00;3.2;;;2.4;;
32451;SDS011;45528;52.102;5.242;2023-07-24T00:22:36;5.4;;;2.31;;
32451;SDS011;45528;52.102;5.242;2023-07-24T00:24:14;3.7;;;2.5;;
32451;SDS011;45528;52.102;5.242;2023-07-24T00:25:51;4.3;;;2.6;;
32451;SDS011;45528;52.102;5.242;2023-07-24T00:29:05;4.5;;;2.7;;
32451;SDS011;45528;52.102;5.242;2023-07-24T00:30:42;4.3;;;2.4;;
32451;SDS011;45528;52.102;5.242;2023-07-24T00:32:19;5.5;;;2.5;;
32451;SDS011;45528;52.102;5.242;2023-07-24T00:35:33;4.1;;;2.6;;
32451;SDS011;45528;52.102;5.242;2023-07-24T00:37:10;4.0;;;2.5;;
32451;SDS011;45528;52.102;5.242;2023-07-24T00:38:48;3.9;;;2.5;;
32451;SDS011;45528;52.102;5.242;2023-07-24T00:40:24;4.0;;;2.5;;
32451;SDS011;45528;52.102;5.242;2023-07-24T00:43:39;4.0;;;2.4;;
32451;SDS011;45528;52.102;5.242;2023-07-24T00:45:16;3.7;;;2.4;;
32451;SDS011;45528;52.102;5.242;2023-07-24T00:46:52;3.8;;;2.4;;
32451;SDS011;45528;52.102;5.242;2023-07-24T00:50:07;4.3;;;2.7;;
32451;SDS011;45528;52.102;5.242;2023-07-24T00:51:45;3.6;;;2.5;;
32451;SDS011;45528;52.102;5.242;2023-07-24T00:53:22;4.1;;;2.6;;
32451;SDS011;45528;52.102;5.242;2023-07-24T00:54:59;4.0;;;2.4;;
32451;SDS011;45528;52.102;5.242;2023-07-24T00:58:13;3.9;;;2.5;;
32451;SDS011;45528;52.102;5.242;2023-07-24T00:59:52;3.5;;;2.4;;
32451;SDS011;45528;52.102;5.242;2023-07-24T01:01:29;4.0;;;2.4;;
32451;SDS011;45528;52.102;5.242;2023-07-24T01:04:43;3.2;;;2.31;;
32451;SDS011;45528;52.102;5.242;2023-07-24T01:06:20;4.0;;;2.4;;
32451;SDS011;45528;52.102;5.242;2023-07-24T01:07:58;3.5;;;2.31;;
32451;SDS011;45528;52.102;5.242;2023-07-24T01:11:14;3.3;;;2.21;;
32451;SDS011;45528;52.102;5.242;2023-07-24T01:13:06;3.5;;;2.31;;
32451;SDS011;45528;52.102;5.242;2023-07-24T01:14:52;5.0;;;2.7;;
32451;SDS011;45528;52.102;5.242;2023-07-24T01:16:36;4.7;;;2.8;;
32451;SDS011;45528;52.102;5.242;2023-07-24T01:18:14;4.3;;;2.5;;
32451;SDS011;45528;52.102;5.242;2023-07-24T01:21:36;5.2;;;2.5;;
32451;SDS011;45528;52.102;5.242;2023-07-24T01:23:38;3.6;;;2.21;;
32451;SDS011;45528;52.102;5.242;2023-07-24T01:25:31;3.4;;;2.21;;
32451;SDS011;45528;52.102;5.242;2023-07-24T01:27:09;3.9;;;2.31;;
32451;SDS011;45528;52.102;5.242;2023-07-24T01:28:46;3.5;;;2.31;;
32451;SDS011;45528;52.102;5.242;2023-07-24T01:31:59;4.0;;;2.31;;
32451;SDS011;45528;52.102;5.242;2023-07-24T01:33:37;3.4;;;2.21;;
32451;SDS011;45528;52.102;5.242;2023-07-24T01:35:14;4.5;;;2.5;;
32451;SDS011;45528;52.102;5.242;2023-07-24T01:36:51;4.1;;;2.0;;
32451;SDS011;45528;52.102;5.242;2023-07-24T01:40:08;3.5;;;2.4;;
32451;SDS011;45528;52.102;5.242;2023-07-24T01:41:46;3.2;;;2.1;;
32451;SDS011;45528;52.102;5.242;2023-07-24T01:43:24;3.0;;;2.1;;
32451;SDS011;45528;52.102;5.242;2023-07-24T01:46:40;3.0;;;2.1;;
32451;SDS011;45528;52.102;5.242;2023-07-24T01:48:17;5.11;;;2.4;;
32451;SDS011;45528;52.102;5.242;2023-07-24T01:49:53;4.1;;;2.5;;
32451;SDS011;45528;52.102;5.242;2023-07-24T01:51:29;4.41;;;2.31;;
32451;SDS011;45528;52.102;5.242;2023-07-24T01:54:43;3.0;;;2.1;;
32451;SDS011;45528;52.102;5.242;2023-07-24T01:56:20;3.2;;;2.1;;
32451;SDS011;45528;52.102;5.242;2023-07-24T01:57:56;3.8;;;2.1;;
32451;SDS011;45528;52.102;5.242;2023-07-24T02:01:09;3.2;;;2.1;;
32451;SDS011;45528;52.102;5.242;2023-07-24T02:02:46;3.6;;;2.1;;
32451;SDS011;45528;52.102;5.242;2023-07-24T02:04:23;4.5;;;2.31;;
32451;SDS011;45528;52.102;5.242;2023-07-24T02:07:36;3.5;;;2.0;;
32451;SDS011;45528;52.102;5.242;2023-07-24T02:09:13;3.9;;;2.5;;
32451;SDS011;45528;52.102;5.242;2023-07-24T02:10:50;3.5;;;2.21;;
32451;SDS011;45528;52.102;5.242;2023-07-24T02:12:26;4.0;;;2.5;;
32451;SDS011;45528;52.102;5.242;2023-07-24T02:15:40;3.8;;;2.4;;
32451;SDS011;45528;52.102;5.242;2023-07-24T02:17:17;3.5;;;2.21;;
32451;SDS011;45528;52.102;5.242;2023-07-24T02:18:54;5.11;;;2.4;;
32451;SDS011;45528;52.102;5.242;2023-07-24T02:22:08;4.41;;;2.4;;
32451;SDS011;45528;52.102;5.242;2023-07-24T02:23:44;3.8;;;2.31;;
32451;SDS011;45528;52.102;5.242;2023-07-24T02:25:21;3.5;;;2.5;;
32451;SDS011;45528;52.102;5.242;2023-07-24T02:28:34;3.5;;;2.5;;
32451;SDS011;45528;52.102;5.242;2023-07-24T02:30:11;4.1;;;2.31;;
32451;SDS011;45528;52.102;5.242;2023-07-24T02:31:48;3.8;;;2.31;;
32451;SDS011;45528;52.102;5.242;2023-07-24T02:33:25;3.8;;;2.4;;
32451;SDS011;45528;52.102;5.242;2023-07-24T02:36:39;2.9;;;2.31;;
32451;SDS011;45528;52.102;5.242;2023-07-24T02:38:15;5.2;;;2.21;;
32451;SDS011;45528;52.102;5.242;2023-07-24T02:39:52;3.7;;;2.1;;
32451;SDS011;45528;52.102;5.242;2023-07-24T02:43:06;3.2;;;2.1;;
32451;SDS011;45528;52.102;5.242;2023-07-24T02:44:43;3.4;;;2.21;;
32451;SDS011;45528;52.102;5.242;2023-07-24T02:46:20;3.7;;;2.5;;
32451;SDS011;45528;52.102;5.242;2023-07-24T02:47:57;6.1;;;3.1;;
32451;SDS011;45528;52.102;5.242;2023-07-24T02:51:12;3.7;;;2.6;;
32451;SDS011;45528;52.102;5.242;2023-07-24T02:52:49;5.4;;;2.6;;
32451;SDS011;45528;52.102;5.242;2023-07-24T02:54:26;4.0;;;2.4;;
32451;SDS011;45528;52.102;5.242;2023-07-24T02:57:40;3.7;;;2.7;;
32451;SDS011;45528;52.102;5.242;2023-07-24T02:59:16;5.11;;;2.9;;
32451;SDS011;45528;52.102;5.242;2023-07-24T03:00:53;6.3;;;2.8;;
32451;SDS011;45528;52.102;5.242;2023-07-24T03:04:06;5.5;;;2.8;;
32451;SDS011;45528;52.102;5.242;2023-07-24T03:05:43;4.5;;;2.8;;
32451;SDS011;45528;52.102;5.242;2023-07-24T03:07:20;4.8;;;3.0;;
32451;SDS011;45528;52.102;5.242;2023-07-24T03:08:58;5.3;;;3.0;;
32451;SDS011;45528;52.102;5.242;2023-07-24T03:12:17;4.91;;;2.8;;
32451;SDS011;45528;52.102;5.242;2023-07-24T03:13:53;4.1;;;2.8;;
32451;SDS011;45528;52.102;5.242;2023-07-24T03:15:30;4.1;;;2.8;;
32451;SDS011;45528;52.102;5.242;2023-07-24T03:18:43;6.4;;;3.0;;
32451;SDS011;45528;52.102;5.242;2023-07-24T03:20:20;5.11;;;3.1;;
32451;SDS011;45528;52.102;5.242;2023-07-24T03:21:57;5.2;;;2.7;;
32451;SDS011;45528;52.102;5.242;2023-07-24T03:23:34;4.91;;;3.2;;
32451;SDS011;45528;52.102;5.242;2023-07-24T03:26:47;3.9;;;2.8;;
32451;SDS011;45528;52.102;5.242;2023-07-24T03:28:23;5.0;;;2.6;;
32451;SDS011;45528;52.102;5.242;2023-07-24T03:30:01;5.6;;;3.4;;
32451;SDS011;45528;52.102;5.242;2023-07-24T03:33:15;5.7;;;3.2;;
32451;SDS011;45528;52.102;5.242;2023-07-24T03:34:52;4.41;;;3.1;;
32451;SDS011;45528;52.102;5.242;2023-07-24T03:36:29;5.4;;;3.2;;
32451;SDS011;45528;52.102;5.242;2023-07-24T03:39:43;4.8;;;3.3;;
32451;SDS011;45528;52.102;5.242;2023-07-24T03:41:20;7.7;;;3.9;;
32451;SDS011;45528;52.102;5.242;2023-07-24T03:42:57;5.7;;;3.3;;
32451;SDS011;45528;52.102;5.242;2023-07-24T03:44:34;5.4;;;3.3;;
32451;SDS011;45528;52.102;5.242;2023-07-24T03:47:47;5.9;;;3.0;;
32451;SDS011;45528;52.102;5.242;2023-07-24T03:49:25;6.8;;;2.9;;
32451;SDS011;45528;52.102;5.242;2023-07-24T03:51:01;5.2;;;3.6;;
32451;SDS011;45528;52.102;5.242;2023-07-24T03:54:14;6.5;;;3.5;;
32451;SDS011;45528;52.102;5.242;2023-07-24T03:55:51;5.6;;;3.4;;
32451;SDS011;45528;52.102;5.242;2023-07-24T03:57:27;5.2;;;3.3;;
32451;SDS011;45528;52.102;5.242;2023-07-24T03:59:05;4.61;;;3.3;;
32451;SDS011;45528;52.102;5.242;2023-07-24T04:02:18;6.7;;;3.8;;
32451;SDS011;45528;52.102;5.242;2023-07-24T04:03:56;6.1;;;3.7;;
32451;SDS011;45528;52.102;5.242;2023-07-24T04:05:33;6.4;;;3.5;;
32451;SDS011;45528;52.102;5.242;2023-07-24T04:08:48;6.4;;;3.5;;
32451;SDS011;45528;52.102;5.242;2023-07-24T04:10:25;4.8;;;3.4;;
32451;SDS011;45528;52.102;5.242;2023-07-24T04:12:03;7.2;;;4.0;;
32451;SDS011;45528;52.102;5.242;2023-07-24T04:15:16;6.1;;;3.5;;
32451;SDS011;45528;52.102;5.242;2023-07-24T04:16:54;5.0;;;3.3;;
32451;SDS011;45528;52.102;5.242;2023-07-24T04:18:31;6.4;;;4.0;;
32451;SDS011;45528;52.102;5.242;2023-07-24T04:20:08;6.3;;;3.5;;
32451;SDS011;45528;52.102;5.242;2023-07-24T04:23:23;6.0;;;4.1;;
32451;SDS011;45528;52.102;5.242;2023-07-24T04:25:00;4.5;;;3.2;;
32451;SDS011;45528;52.102;5.242;2023-07-24T04:26:37;7.3;;;3.9;;
32451;SDS011;45528;52.102;5.242;2023-07-24T04:29:51;4.5;;;3.1;;
32451;SDS011;45528;52.102;5.242;2023-07-24T04:31:28;6.9;;;3.4;;
32451;SDS011;45528;52.102;5.242;2023-07-24T04:33:05;6.0;;;3.6;;
32451;SDS011;45528;52.102;5.242;2023-07-24T04:34:42;5.3;;;3.6;;
32451;SDS011;45528;52.102;5.242;2023-07-24T04:37:56;7.1;;;3.3;;
32451;SDS011;45528;52.102;5.242;2023-07-24T04:39:33;6.1;;;3.8;;
32451;SDS011;45528;52.102;5.242;2023-07-24T04:41:10;6.1;;;3.9;;
32451;SDS011;45528;52.102;5.242;2023-07-24T04:44:24;6.4;;;3.4;;
32451;SDS011;45528;52.102;5.242;2023-07-24T04:46:01;7.7;;;3.9;;
32451;SDS011;45528;52.102;5.242;2023-07-24T04:47:37;4.91;;;3.3;;
32451;SDS011;45528;52.102;5.242;2023-07-24T04:50:53;6.7;;;4.1;;
32451;SDS011;45528;52.102;5.242;2023-07-24T04:52:30;5.7;;;3.4;;
32451;SDS011;45528;52.102;5.242;2023-07-24T04:54:07;6.5;;;3.6;;
32451;SDS011;45528;52.102;5.242;2023-07-24T04:55:45;7.0;;;3.4;;
32451;SDS011;45528;52.102;5.242;2023-07-24T04:58:57;7.4;;;3.6;;
32451;SDS011;45528;52.102;5.242;2023-07-24T05:00:35;6.3;;;4.1;;
32451;SDS011;45528;52.102;5.242;2023-07-24T05:02:11;6.4;;;3.9;;
32451;SDS011;45528;52.102;5.242;2023-07-24T05:05:25;8.1;;;4.3;;
32451;SDS011;45528;52.102;5.242;2023-07-24T05:07:02;7.2;;;4.7;;
32451;SDS011;45528;52.102;5.242;2023-07-24T05:08:39;7.0;;;4.0;;
32451;SDS011;45528;52.102;5.242;2023-07-24T05:10:15;7.1;;;4.1;;
32451;SDS011;45528;52.102;5.242;2023-07-24T05:13:29;6.2;;;3.9;;
32451;SDS011;45528;52.102;5.242;2023-07-24T05:15:05;8.5;;;4.41;;
32451;SDS011;45528;52.102;5.242;2023-07-24T05:16:42;7.6;;;4.0;;
32451;SDS011;45528;52.102;5.242;2023-07-24T05:19:57;7.0;;;3.9;;
32451;SDS011;45528;52.102;5.242;2023-07-24T05:21:34;8.1;;;4.1;;
32451;SDS011;45528;52.102;5.242;2023-07-24T05:23:10;7.0;;;4.0;;
32451;SDS011;45528;52.102;5.242;2023-07-24T05:26:23;5.9;;;3.7;;
32451;SDS011;45528;52.102;5.242;2023-07-24T05:28:00;7.9;;;4.2;;
32451;SDS011;45528;52.102;5.242;2023-07-24T05:29:36;7.8;;;4.3;;
32451;SDS011;45528;52.102;5.242;2023-07-24T05:31:14;7.9;;;3.8;;
32451;SDS011;45528;52.102;5.242;2023-07-24T05:34:27;8.4;;;4.0;;
32451;SDS011;45528;52.102;5.242;2023-07-24T05:36:04;6.0;;;3.6;;
32451;SDS011;45528;52.102;5.242;2023-07-24T05:37:41;8.5;;;4.41;;
32451;SDS011;45528;52.102;5.242;2023-07-24T05:40:55;8.9;;;3.9;;
32451;SDS011;45528;52.102;5.242;2023-07-24T05:42:33;7.3;;;4.1;;
32451;SDS011;45528;52.102;5.242;2023-07-24T05:44:09;6.4;;;3.9;;
32451;SDS011;45528;52.102;5.242;2023-07-24T05:45:46;7.1;;;4.0;;
32451;SDS011;45528;52.102;5.242;2023-07-24T05:49:00;7.1;;;3.9;;
32451;SDS011;45528;52.102;5.242;2023-07-24T05:50:37;8.0;;;4.1;;
32451;SDS011;45528;52.102;5.242;2023-07-24T05:52:14;7.7;;;4.1;;
32451;SDS011;45528;52.102;5.242;2023-07-24T05:55:28;7.5;;;4.2;;
32451;SDS011;45528;52.102;5.242;2023-07-24T05:57:05;7.5;;;4.0;;
32451;SDS011;45528;52.102;5.242;2023-07-24T05:58:42;7.4;;;4.5;;
32451;SDS011;45528;52.102;5.242;2023-07-24T06:01:56;8.71;;;4.3;;
32451;SDS011;45528;52.102;5.242;2023-07-24T06:03:33;8.0;;;4.3;;
32451;SDS011;45528;52.102;5.242;2023-07-24T06:05:10;7.9;;;4.2;;
32451;SDS011;45528;52.102;5.242;2023-07-24T06:06:46;5.5;;;3.7;;
32451;SDS011;45528;52.102;5.242;2023-07-24T06:10:01;6.5;;;3.8;;
32451;SDS011;45528;52.102;5.242;2023-07-24T06:11:38;7.7;;;4.1;;
32451;SDS011;45528;52.102;5.242;2023-07-24T06:13:15;7.7;;;3.7;;
32451;SDS011;45528;52.102;5.242;2023-07-24T06:16:30;7.4;;;3.9;;
32451;SDS011;45528;52.102;5.242;2023-07-24T06:18:07;11.6;;;4.5;;
32451;SDS011;45528;52.102;5.242;2023-07-24T06:19:44;7.8;;;4.3;;
32451;SDS011;45528;52.102;5.242;2023-07-24T06:21:21;10.8;;;4.7;;
32451;SDS011;45528;52.102;5.242;2023-07-24T06:24:34;6.7;;;4.1;;
32451;SDS011;45528;52.102;5.242;2023-07-24T06:26:12;9.31;;;4.8;;
32451;SDS011;45528;52.102;5.242;2023-07-24T06:27:49;11.9;;;4.61;;
32451;SDS011;45528;52.102;5.242;2023-07-24T06:31:01;6.3;;;3.6;;
32451;SDS011;45528;52.102;5.242;2023-07-24T06:32:39;8.0;;;4.3;;
32451;SDS011;45528;52.102;5.242;2023-07-24T06:34:16;8.4;;;4.1;;
32451;SDS011;45528;52.102;5.242;2023-07-24T06:37:30;7.7;;;3.9;;
32451;SDS011;45528;52.102;5.242;2023-07-24T06:39:07;6.5;;;3.7;;
32451;SDS011;45528;52.102;5.242;2023-07-24T06:40:43;8.4;;;3.5;;
32451;SDS011;45528;52.102;5.242;2023-07-24T06:42:20;7.4;;;4.0;;
32451;SDS011;45528;52.102;5.242;2023-07-24T06:45:34;10.3;;;4.41;;
32451;SDS011;45528;52.102;5.242;2023-07-24T06:47:11;6.1;;;3.3;;
32451;SDS011;45528;52.102;5.242;2023-07-24T06:48:47;7.4;;;3.5;;
32451;SDS011;45528;52.102;5.242;2023-07-24T06:52:01;7.6;;;3.7;;
32451;SDS011;45528;52.102;5.242;2023-07-24T06:53:38;9.6;;;3.9;;
32451;SDS011;45528;52.102;5.242;2023-07-24T06:55:14;7.7;;;4.0;;
32451;SDS011;45528;52.102;5.242;2023-07-24T06:58:27;6.5;;;3.6;;
32451;SDS011;45528;52.102;5.242;2023-07-24T07:00:03;9.9;;;3.7;;
32451;SDS011;45528;52.102;5.242;2023-07-24T07:01:41;7.0;;;3.7;;
32451;SDS011;45528;52.102;5.242;2023-07-24T07:03:18;8.31;;;4.1;;
32451;SDS011;45528;52.102;5.242;2023-07-24T07:06:32;7.4;;;4.1;;
32451;SDS011;45528;52.102;5.242;2023-07-24T07:08:09;7.6;;;3.4;;
32451;SDS011;45528;52.102;5.242;2023-07-24T07:09:46;9.1;;;3.9;;
32451;SDS011;45528;52.102;5.242;2023-07-24T07:12:59;8.31;;;4.0;;
32451;SDS011;45528;52.102;5.242;2023-07-24T07:14:36;7.3;;;3.4;;
32451;SDS011;45528;52.102;5.242;2023-07-24T07:16:12;8.31;;;3.6;;
32451;SDS011;45528;52.102;5.242;2023-07-24T07:19:27;8.31;;;3.8;;
32451;SDS011;45528;52.102;5.242;2023-07-24T07:21:04;6.8;;;3.8;;
32451;SDS011;45528;52.102;5.242;2023-07-24T07:22:40;5.5;;;3.5;;
32451;SDS011;45528;52.102;5.242;2023-07-24T07:24:18;7.4;;;3.4;;
32451;SDS011;45528;52.102;5.242;2023-07-24T07:27:31;6.4;;;3.5;;
32451;SDS011;45528;52.102;5.242;2023-07-24T07:29:08;6.9;;;3.5;;
32451;SDS011;45528;52.102;5.242;2023-07-24T07:30:44;12.5;;;4.1;;
32451;SDS011;45528;52.102;5.242;2023-07-24T07:33:58;10.21;;;4.1;;
32451;SDS011;45528;52.102;5.242;2023-07-24T07:35:35;5.0;;;3.3;;
32451;SDS011;45528;52.102;5.242;2023-07-24T07:37:13;8.6;;;4.1;;
32451;SDS011;45528;52.102;5.242;2023-07-24T07:38:50;7.4;;;4.2;;
32451;SDS011;45528;52.102;5.242;2023-07-24T07:42:04;8.6;;;3.7;;
32451;SDS011;45528;52.102;5.242;2023-07-24T07:43:41;7.4;;;3.5;;
32451;SDS011;45528;52.102;5.242;2023-07-24T07:45:17;7.4;;;3.3;;
32451;SDS011;45528;52.102;5.242;2023-07-24T07:48:31;6.5;;;3.8;;
32451;SDS011;45528;52.102;5.242;2023-07-24T07:50:09;6.9;;;3.5;;
32451;SDS011;45528;52.102;5.242;2023-07-24T07:51:46;8.71;;;4.1;;
32451;SDS011;45528;52.102;5.242;2023-07-24T07:55:00;5.6;;;3.5;;
32451;SDS011;45528;52.102;5.242;2023-07-24T07:56:36;7.7;;;3.6;;
32451;SDS011;45528;52.102;5.242;2023-07-24T07:58:13;7.8;;;3.2;;
32451;SDS011;45528;52.102;5.242;2023-07-24T07:59:50;7.4;;;3.8;;
32451;SDS011;45528;52.102;5.242;2023-07-24T08:03:04;7.5;;;3.5;;
32451;SDS011;45528;52.102;5.242;2023-07-24T08:04:41;8.5;;;3.5;;
32451;SDS011;45528;52.102;5.242;2023-07-24T08:06:17;4.61;;;3.0;;
32451;SDS011;45528;52.102;5.242;2023-07-24T08:09:32;6.6;;;3.4;;
32451;SDS011;45528;52.102;5.242;2023-07-24T08:11:09;7.6;;;3.2;;
32451;SDS011;45528;52.102;5.242;2023-07-24T08:12:46;7.3;;;3.4;;
32451;SDS011;45528;52.102;5.242;2023-07-24T08:14:23;10.7;;;4.0;;
32451;SDS011;45528;52.102;5.242;2023-07-24T08:17:37;6.7;;;3.0;;
32451;SDS011;45528;52.102;5.242;2023-07-24T08:19:14;6.3;;;3.2;;
32451;SDS011;45528;52.102;5.242;2023-07-24T08:20:51;7.3;;;3.3;;
32451;SDS011;45528;52.102;5.242;2023-07-24T08:24:04;6.6;;;3.1;;
32451;SDS011;45528;52.102;5.242;2023-07-24T08:25:50;9.4;;;3.4;;
32451;SDS011;45528;52.102;5.242;2023-07-24T08:27:26;6.1;;;3.0;;
32451;SDS011;45528;52.102;5.242;2023-07-24T08:29:03;4.91;;;2.8;;
32451;SDS011;45528;52.102;5.242;2023-07-24T08:32:17;6.7;;;3.6;;
32451;SDS011;45528;52.102;5.242;2023-07-24T08:33:54;6.6;;;3.6;;
32451;SDS011;45528;52.102;5.242;2023-07-24T08:35:30;8.1;;;3.4;;
32451;SDS011;45528;52.102;5.242;2023-07-24T08:38:43;5.7;;;3.4;;
32451;SDS011;45528;52.102;5.242;2023-07-24T08:40:19;8.1;;;3.5;;
32451;SDS011;45528;52.102;5.242;2023-07-24T08:41:57;6.2;;;3.6;;
32451;SDS011;45528;52.102;5.242;2023-07-24T08:45:12;7.9;;;3.5;;
32451;SDS011;45528;52.102;5.242;2023-07-24T08:46:49;8.2;;;3.7;;
32451;SDS011;45528;52.102;5.242;2023-07-24T08:48:29;6.9;;;3.6;;
32451;SDS011;45528;52.102;5.242;2023-07-24T08:50:07;7.2;;;3.4;;
32451;SDS011;45528;52.102;5.242;2023-07-24T08:53:22;8.5;;;3.8;;
32451;SDS011;45528;52.102;5.242;2023-07-24T08:55:00;6.8;;;4.1;;
32451;SDS011;45528;52.102;5.242;2023-07-24T08:56:37;7.4;;;3.9;;
32451;SDS011;45528;52.102;5.242;2023-07-24T08:59:52;9.9;;;4.2;;
32451;SDS011;45528;52.102;5.242;2023-07-24T09:01:29;11.4;;;4.91;;
32451;SDS011;45528;52.102;5.242;2023-07-24T09:03:06;7.7;;;4.61;;
32451;SDS011;45528;52.102;5.242;2023-07-24T09:04:43;8.71;;;5.0;;
32451;SDS011;45528;52.102;5.242;2023-07-24T09:07:56;7.6;;;4.61;;
32451;SDS011;45528;52.102;5.242;2023-07-24T09:09:33;7.6;;;4.61;;
32451;SDS011;45528;52.102;5.242;2023-07-24T09:11:11;9.21;;;5.11;;
32451;SDS011;45528;52.102;5.242;2023-07-24T09:14:28;10.21;;;4.7;;
32451;SDS011;45528;52.102;5.242;2023-07-24T09:16:05;7.0;;;4.5;;
32451;SDS011;45528;52.102;5.242;2023-07-24T09:17:47;6.0;;;3.8;;
32451;SDS011;45528;52.102;5.242;2023-07-24T09:19:27;7.0;;;3.5;;
32451;SDS011;45528;52.102;5.242;2023-07-24T09:22:47;6.5;;;3.8;;
32451;SDS011;45528;52.102;5.242;2023-07-24T09:24:25;9.9;;;3.7;;
32451;SDS011;45528;52.102;5.242;2023-07-24T09:26:04;7.6;;;3.8;;
32451;SDS011;45528;52.102;5.242;2023-07-24T09:27:42;7.8;;;3.8;;
32451;SDS011;45528;52.102;5.242;2023-07-24T09:30:58;8.31;;;4.2;;
32451;SDS011;45528;52.102;5.242;2023-07-24T09:32:35;10.1;;;5.3;;
32451;SDS011;45528;52.102;5.242;2023-07-24T09:34:16;8.6;;;4.7;;
32451;SDS011;45528;52.102;5.242;2023-07-24T09:37:34;10.3;;;5.2;;
32451;SDS011;45528;52.102;5.242;2023-07-24T09:39:10;7.5;;;4.3;;
32451;SDS011;45528;52.102;5.242;2023-07-24T09:40:47;8.6;;;4.61;;
32451;SDS011;45528;52.102;5.242;2023-07-24T09:42:28;9.6;;;4.5;;
32451;SDS011;45528;52.102;5.242;2023-07-24T09:45:43;7.1;;;4.2;;
32451;SDS011;45528;52.102;5.242;2023-07-24T09:47:21;6.4;;;3.9;;
32451;SDS011;45528;52.102;5.242;2023-07-24T09:48:58;7.0;;;3.7;;
32451;SDS011;45528;52.102;5.242;2023-07-24T09:50:36;6.8;;;4.1;;
32451;SDS011;45528;52.102;5.242;2023-07-24T09:53:55;7.9;;;4.3;;
32451;SDS011;45528;52.102;5.242;2023-07-24T09:55:38;8.31;;;4.61;;
32451;SDS011;45528;52.102;5.242;2023-07-24T09:57:23;7.4;;;4.61;;
32451;SDS011;45528;52.102;5.242;2023-07-24T09:59:02;8.31;;;4.1;;
32451;SDS011;45528;52.102;5.242;2023-07-24T10:02:17;8.5;;;4.2;;
32451;SDS011;45528;52.102;5.242;2023-07-24T10:03:54;8.2;;;4.41;;
32451;SDS011;45528;52.102;5.242;2023-07-24T10:05:31;7.0;;;3.4;;
32451;SDS011;45528;52.102;5.242;2023-07-24T10:08:46;7.9;;;3.6;;
32451;SDS011;45528;52.102;5.242;2023-07-24T10:10:24;8.0;;;3.8;;
32451;SDS011;45528;52.102;5.242;2023-07-24T10:12:01;5.6;;;3.2;;
32451;SDS011;45528;52.102;5.242;2023-07-24T10:13:39;5.7;;;3.7;;
32451;SDS011;45528;52.102;5.242;2023-07-24T10:16:55;5.5;;;3.5;;
32451;SDS011;45528;52.102;5.242;2023-07-24T10:18:31;7.1;;;3.8;;
32451;SDS011;45528;52.102;5.242;2023-07-24T10:20:10;6.9;;;4.0;;
32451;SDS011;45528;52.102;5.242;2023-07-24T10:23:26;7.4;;;4.61;;
32451;SDS011;45528;52.102;5.242;2023-07-24T10:25:04;6.1;;;4.2;;
32451;SDS011;45528;52.102;5.242;2023-07-24T10:26:41;8.5;;;3.5;;
32451;SDS011;45528;52.102;5.242;2023-07-24T10:28:18;7.7;;;3.7;;
32451;SDS011;45528;52.102;5.242;2023-07-24T10:31:51;7.9;;;3.3;;
32451;SDS011;45528;52.102;5.242;2023-07-24T10:33:29;8.0;;;3.7;;
32451;SDS011;45528;52.102;5.242;2023-07-24T10:35:07;9.21;;;3.7;;
32451;SDS011;45528;52.102;5.242;2023-07-24T10:36:45;6.3;;;3.6;;
32451;SDS011;45528;52.102;5.242;2023-07-24T10:40:18;5.5;;;3.8;;
32451;SDS011;45528;52.102;5.242;2023-07-24T10:42:04;6.6;;;3.4;;
32451;SDS011;45528;52.102;5.242;2023-07-24T10:43:42;6.0;;;3.7;;
32451;SDS011;45528;52.102;5.242;2023-07-24T10:45:21;8.6;;;4.3;;
32451;SDS011;45528;52.102;5.242;2023-07-24T10:48:35;5.6;;;3.3;;
32451;SDS011;45528;52.102;5.242;2023-07-24T10:50:13;7.2;;;3.8;;
32451;SDS011;45528;52.102;5.242;2023-07-24T10:51:54;7.4;;;4.2;;
32451;SDS011;45528;52.102;5.242;2023-07-24T10:53:30;5.5;;;3.4;;
32451;SDS011;45528;52.102;5.242;2023-07-24T10:56:44;6.0;;;3.4;;
32451;SDS011;45528;52.102;5.242;2023-07-24T10:58:20;4.7;;;3.4;;
32451;SDS011;45528;52.102;5.242;2023-07-24T11:00:00;6.7;;;4.0;;
32451;SDS011;45528;52.102;5.242;2023-07-24T11:03:14;6.6;;;3.8;;
32451;SDS011;45528;52.102;5.242;2023-07-24T11:04:53;7.3;;;4.0;;
32451;SDS011;45528;52.102;5.242;2023-07-24T11:06:29;5.11;;;3.4;;
32451;SDS011;45528;52.102;5.242;2023-07-24T11:08:08;5.9;;;3.6;;
32451;SDS011;45528;52.102;5.242;2023-07-24T11:11:27;7.7;;;4.41;;
32451;SDS011;45528;52.102;5.242;2023-07-24T11:13:09;6.7;;;3.4;;
32451;SDS011;45528;52.102;5.242;2023-07-24T11:14:46;7.2;;;4.0;;
32451;SDS011;45528;52.102;5.242;2023-07-24T11:16:25;5.4;;;3.5;;
32451;SDS011;45528;52.102;5.242;2023-07-24T11:19:40;6.7;;;3.1;;
32451;SDS011;45528;52.102;5.242;2023-07-24T11:21:17;6.9;;;3.6;;
32451;SDS011;45528;52.102;5.242;2023-07-24T11:22:57;9.9;;;3.8;;
32451;SDS011;45528;52.102;5.242;2023-07-24T11:26:20;5.8;;;3.7;;
32451;SDS011;45528;52.102;5.242;2023-07-24T11:27:58;7.7;;;3.7;;
32451;SDS011;45528;52.102;5.242;2023-07-24T11:29:34;8.6;;;2.9;;
32451;SDS011;45528;52.102;5.242;2023-07-24T11:31:11;6.9;;;2.9;;
32451;SDS011;45528;52.102;5.242;2023-07-24T11:34:25;9.5;;;3.8;;
32451;SDS011;45528;52.102;5.242;2023-07-24T11:36:02;6.4;;;3.1;;
32451;SDS011;45528;52.102;5.242;2023-07-24T11:37:39;5.9;;;3.9;;
32451;SDS011;45528;52.102;5.242;2023-07-24T11:40:58;6.9;;;4.61;;
32451;SDS011;45528;52.102;5.242;2023-07-24T11:42:36;8.81;;;4.41;;
32451;SDS011;45528;52.102;5.242;2023-07-24T11:44:14;7.1;;;3.9;;
32451;SDS011;45528;52.102;5.242;2023-07-24T11:45:52;5.5;;;3.2;;
32451;SDS011;45528;52.102;5.242;2023-07-24T11:49:07;6.3;;;3.8;;
32451;SDS011;45528;52.102;5.242;2023-07-24T11:50:45;6.3;;;3.6;;
32451;SDS011;45528;52.102;5.242;2023-07-24T11:52:22;7.4;;;3.9;;
32451;SDS011;45528;52.102;5.242;2023-07-24T11:54:07;5.2;;;2.9;;
32451;SDS011;45528;52.102;5.242;2023-07-24T11:57:22;8.2;;;3.7;;
32451;SDS011;45528;52.102;5.242;2023-07-24T11:59:08;6.0;;;3.5;;
32451;SDS011;45528;52.102;5.242;2023-07-24T12:00:45;5.8;;;3.3;;
32451;SDS011;45528;52.102;5.242;2023-07-24T12:02:23;5.4;;;3.3;;
32451;SDS011;45528;52.102;5.242;2023-07-24T12:05:39;6.7;;;3.7;;
32451;SDS011;45528;52.102;5.242;2023-07-24T12:07:17;6.0;;;3.7;;
32451;SDS011;45528;52.102;5.242;2023-07-24T12:09:00;7.1;;;3.9;;
32451;SDS011;45528;52.102;5.242;2023-07-24T12:12:18;6.4;;;3.7;;
32451;SDS011;45528;52.102;5.242;2023-07-24T12:13:54;7.3;;;3.7;;
32451;SDS011;45528;52.102;5.242;2023-07-24T12:15:31;6.4;;;3.8;;
32451;SDS011;45528;52.102;5.242;2023-07-24T12:17:08;6.4;;;3.9;;
32451;SDS011;45528;52.102;5.242;2023-07-24T12:20:23;7.5;;;4.1;;
32451;SDS011;45528;52.102;5.242;2023-07-24T12:21:59;5.4;;;3.2;;
32451;SDS011;45528;52.102;5.242;2023-07-24T12:23:35;6.4;;;4.0;;
32451;SDS011;45528;52.102;5.242;2023-07-24T12:26:49;6.9;;;3.7;;
32451;SDS011;45528;52.102;5.242;2023-07-24T12:28:27;7.4;;;3.8;;
32451;SDS011;45528;52.102;5.242;2023-07-24T12:30:04;7.6;;;3.8;;
32451;SDS011;45528;52.102;5.242;2023-07-24T12:31:41;7.1;;;3.8;;
32451;SDS011;45528;52.102;5.242;2023-07-24T12:34:56;8.2;;;3.6;;
32451;SDS011;45528;52.102;5.242;2023-07-24T12:36:33;6.3;;;3.2;;
32451;SDS011;45528;52.102;5.242;2023-07-24T12:38:10;7.8;;;3.6;;
32451;SDS011;45528;52.102;5.242;2023-07-24T12:41:25;11.7;;;4.2;;
32451;SDS011;45528;52.102;5.242;2023-07-24T12:43:02;7.4;;;4.2;;
32451;SDS011;45528;52.102;5.242;2023-07-24T12:44:39;7.6;;;4.61;;
32451;SDS011;45528;52.102;5.242;2023-07-24T12:47:54;8.71;;;4.8;;
32451;SDS011;45528;52.102;5.242;2023-07-24T12:49:32;8.9;;;4.91;;
32451;SDS011;45528;52.102;5.242;2023-07-24T12:51:09;9.71;;;5.7;;
32451;SDS011;45528;52.102;5.242;2023-07-24T12:52:46;12.8;;;6.2;;
32451;SDS011;45528;52.102;5.242;2023-07-24T12:56:00;8.9;;;5.5;;
32451;SDS011;45528;52.102;5.242;2023-07-24T12:57:37;8.81;;;5.8;;
32451;SDS011;45528;52.102;5.242;2023-07-24T12:59:14;9.6;;;6.1;;
32451;SDS011;45528;52.102;5.242;2023-07-24T13:02:27;8.9;;;5.6;;